Onion Creek, California Weather observations

Data are for observation ending at time listed.
 Day   Time    Ave.   Ave.  Ave.  Vector   Max.   Stn.    Total    Solar   Ave.   Snow 
  of    of     Air    Rel.  Wind   Wind    Wind   Baro.  Precip.   Rad.    Soil   Depth
Year   Day     Temp.  Hum.  Speed  Dir.    Gust   Pres.                    Temp.       
2016   (PST)    F      %     mph   deg.    mph     mb.     in.     W/m2     F      in. 
---------------------------------------------------------------------------------------  
 208   14:40  115.7    14    3.4   270      9.6   835.5   48.29     876    73.0   999.0
 208   14:50  115.2    15    3.6   238     10.6   835.5   48.33     853    73.3   999.0
 208   15:00  115.3    15    3.2   266      8.3   835.4   48.29     823    73.6   999.0
 208   15:10  116.4    15    4.0   255     11.2   835.3   48.29     802    74.0   999.0
 208   15:20  116.0    15    3.8   261      9.5   835.3   48.29     767    74.3   999.0
 208   15:30  116.3    15    3.3   257      8.6   835.3   48.26     730    74.6   999.0
 208   15:40  115.9    14    4.0   271      9.6   835.3   48.26     695    74.8   999.0
 208   15:50  113.3    15    3.8   253      8.0   835.2   48.26     667    75.1   999.0
 208   16:00  110.0    17    3.6   269      7.3   835.2   48.26     633    75.3   999.0
 208   16:10  106.8    19    2.8   274      9.3   835.1   48.29     607    75.4   999.0
 208   16:20   98.5    22    2.9   274      9.2   835.1   48.29     577    75.5   999.0
 208   16:30   88.3    25    3.3   270      7.3   835.1   48.33     542    75.6   999.0
 208   16:40   85.2    26    2.9   251      9.5   835.2   48.33     501    75.6   999.0
 208   16:50   86.3    25    3.0   262      9.3   835.2   48.29     467    75.6   999.0
 208   17:00   87.8    26    3.0   264      8.9   835.2   48.29     431    75.5   999.0
 208   17:10   90.5    24    2.9   248     10.5   835.2   48.29     396    75.5   999.0
 208   17:20   91.1    26    2.3   262      6.8   835.2   48.29     363    75.4   999.0
 208   17:30   92.4    26    3.0   283      9.8   835.1   48.29     328    75.2   999.0
 208   17:40   92.2    26    3.5   288      7.1   835.1   48.33     291    75.1   999.0
 208   17:50   91.2    30    2.0   288      4.9   835.2   48.33     254    75.0   999.0
 208   18:00   87.9    33    1.8   294      4.1   835.3   48.29     221    74.9   999.0
 208   18:10   85.2    36    1.3   322      2.2   835.3   48.33     189    74.8   999.0
 208   18:20   81.2    38    1.0   349      2.5   835.3   48.33     156    74.7   999.0
 208   18:30   75.7    44    1.0     4      2.2   835.2   48.33     119    74.6   999.0
 208   18:40   71.3    49    1.7    16      3.1   835.2   48.33      21    74.4   999.0
 208   18:50   68.6    52    1.4    29      3.6   835.2   48.37      14    74.3   999.0
 208   19:00   66.8    54    1.6    10      3.5   835.2   48.33      11    74.2   999.0
 208   19:10   65.4    56    1.4    34      2.6   835.2   48.37       7    73.9   999.0
 208   19:20   64.2    57    0.9    18      2.3   835.3   48.33       4    73.7   999.0
 208   19:30   63.2    58    1.7    29      3.1   835.3   48.33       2    73.5   999.0
 208   19:40   62.1    59    1.9    35      3.9   835.3   48.33       1    73.3   999.0
 208   19:50   60.8    60    1.9    40      3.7   835.3   48.33       0    73.1   999.0
 208   20:00   59.4    62    1.6    40      2.6   835.4   48.37       0    72.8   999.0
 208   20:10   59.0    62    2.0    38      3.0   835.5   48.33       0    72.6   999.0
 208   20:20   58.5    62    2.0    41      3.4   835.6   48.33       0    72.4   999.0
 208   20:30   57.9    63    2.0    29      2.6   835.7   48.37       0    72.1   999.0
 208   20:40   57.7    62    1.8    41      3.1   835.8   48.37       0    71.9   999.0
 208   20:50   56.8    64    1.6    46      2.5   835.8   48.37       0    71.7   999.0
 208   21:00   56.5    64    1.5    47      2.4   835.8   48.37       0    71.4   999.0
 208   21:10   56.4    65    2.0    35      2.7   835.9   48.37       0    71.2   999.0
 208   21:20   56.2    64    1.8    42      2.6   835.9   48.37       0    71.0   999.0
 208   21:30   55.7    64    0.7    40      1.8   836.0   48.33       0    70.7   999.0
 208   21:40   55.1    65    1.9    38      2.6   836.0   48.37       0    70.5   999.0
 208   21:50   54.7    65    2.5    37      3.1   835.9   48.37       0    70.2   999.0
 208   22:00   54.4    66    1.8    38      2.9   835.9   48.33       0    70.0   999.0
 208   22:10   54.3    66    1.9    29      2.3   835.9   48.37       0    69.8   999.0
 208   22:20   54.2    65    2.1    29      3.1   835.8   48.33       0    69.5   999.0
 208   22:30   53.9    65    2.1    36      2.9   835.8   48.33       0    69.3   999.0
 208   22:40   53.4    66    1.3    31      2.9   835.7   48.37       0    69.1   999.0
 208   22:50   52.7    64    1.8    50      3.1   835.7   48.37       0    68.9   999.0
 208   23:00   52.0    64    1.8    48      3.1   835.7   48.33       0    68.7   999.0
 208   23:10   51.7    65    1.7    42      2.6   835.7   48.37       0    68.5   999.0
 208   23:20   51.5    65    1.9    46      2.8   835.6   48.37       0    68.3   999.0
 208   23:30   51.4    65    2.1    45      2.8   835.7   48.33       0    68.1   999.0
 208   23:40   51.2    64    1.6    50      2.7   835.6   48.33       0    67.8   999.0
 208   23:50   50.7    65    2.3    42      2.9   835.6   48.33       0    67.6   999.0
 209    0:00   50.6    64    2.1    44      3.3   835.6   48.37       0    67.4   999.0
 209    0:10   50.2    64    3.1    41      3.8   835.6   48.37       0    67.2   999.0
 209    0:20   50.1    64    1.9    51      3.5   835.5   48.37       0    67.0   999.0
 209    0:30   50.2    63    2.2    47      3.3   835.5   48.33       0    66.8   999.0
 209    0:40   49.9    63    1.4    57      2.0   835.4   48.37       0    66.6   999.0
 209    0:50   50.0    64    2.3    45      3.3   835.4   48.37       0    66.4   999.0
 209    1:00   50.1    63    2.0    49      3.1   835.4   48.33       0    66.2   999.0
 209    1:10   49.7    60    2.7    44      3.5   835.4   48.37       0    66.0   999.0
 209    1:20   49.7    62    1.8    50      3.1   835.4   48.33       0    65.8   999.0
 209    1:30   49.7    61    1.9    48      3.1   835.4   48.37       0    65.7   999.0
 209    1:40   49.4    62    3.1    40      3.7   835.4   48.33       0    65.5   999.0
 209    1:50   49.4    61    2.9    42      3.9   835.3   48.33       0    65.3   999.0
 209    2:00   49.4    60    2.2    47      3.4   835.3   48.33       0    65.1   999.0
 209    2:10   49.4    60    2.5    45      3.6   835.3   48.37       0    64.9   999.0
 209    2:20   49.5    61    1.8    49      3.0   835.3   48.33       0    64.8   999.0
 209    2:30   49.4    60    1.6    52      2.3   835.4   48.33       0    64.6   999.0
 209    2:40   49.2    60    1.9    48      3.2   835.4   48.33       0    64.4   999.0
 209    2:50   49.2    61    2.7    42      3.6   835.4   48.33       0    64.3   999.0
 209    3:00   49.1    60    2.9    42      3.7   835.4   48.37       0    64.1   999.0
 209    3:10   49.1    60    2.4    48      3.4   835.4   48.37       0    64.0   999.0
 209    3:20   49.3    61    2.7    43      3.7   835.5   48.33       0    63.9   999.0
 209    3:30   49.2    61    2.9    41      3.8   835.4   48.37       0    63.7   999.0
 209    3:40   49.1    60    2.8    43      3.6   835.4   48.33       0    63.6   999.0
 209    3:50   49.0    61    3.1    35      3.7   835.4   48.37       0    63.5   999.0
 209    4:00   48.9    61    3.0    34      3.7   835.5   48.37       0    63.3   999.0
 209    4:10   48.9    62    3.0    40      3.8   835.5   48.33       0    63.1   999.0
 209    4:20   48.8    62    2.9    42      3.8   835.5   48.37       0    63.0   999.0
 209    4:30   48.8    62    2.8    33      3.7   835.5   48.33       0    62.9   999.0
 209    4:40   48.7    62    2.8    41      3.7   835.5   48.37       0    62.7   999.0
 209    4:50   48.8    63    1.7    50      2.7   835.5   48.37       1    62.6   999.0
 209    5:00   48.7    64    1.6    48      2.8   835.6   48.33       2    62.5   999.0
 209    5:10   48.7    64    1.7    47      2.9   835.7   48.33       5    62.4   999.0
 209    5:20   48.8    65    1.7    48      2.8   835.8   48.37       8    62.3   999.0
 209    5:30   48.8    65    2.9    42      3.7   835.8   48.37      10    62.2   999.0
 209    5:40   49.0    65    2.3    46      3.2   835.8   48.37      13    62.0   999.0
 209    5:50   49.1    69    2.4    47      3.3   835.8   48.37      15    61.9   999.0
 209    6:00   49.4    69    2.4    46      3.1   835.8   48.37      17    61.8   999.0
 209    6:10   49.5    69    2.4    45      3.6   835.8   48.37      18    61.7   999.0
 209    6:20   49.7    70    3.2    39      3.6   835.9   48.40      19    61.6   999.0
 209    6:30   50.0    71    2.2    47      3.7   835.9   48.40      21    61.5   999.0
 209    6:40   50.0    73    1.6    51      2.6   835.9   48.40      25    61.4   999.0
 209    6:50   50.1    74    2.4    46      3.5   836.0   48.40      93    61.4   999.0
 209    7:00   50.8    74    3.1    42      3.7   836.0   48.37     119    61.3   999.0
 209    7:10   52.0    73    2.5    43      3.4   836.0   48.37     354    61.2   999.0
 209    7:20   54.0    72    1.9    47      2.6   836.1   48.40     420    61.2   999.0
 209    7:30   57.5    70    1.8    47      2.6   836.2   48.40     459    61.1   999.0
 209    7:40   60.6    67    1.5    47      2.2   836.3   48.40     496    61.1   999.0
 209    7:50   61.7    63    1.5    50      2.0   836.2   48.40     525    61.1   999.0
 209    8:00   60.1    63    1.5    50      2.2   836.2   48.37     165    61.2   999.0
 209    8:10   59.6    63    1.3    56      1.6   836.2   48.40     206    61.3   999.0
 209    8:20   59.2    64    1.5    65      2.1   836.2   48.37     160    61.4   999.0
 209    8:30   58.5    66    1.4    64      2.1   836.2   48.37      50    61.5   999.0
 209    8:40   58.4    68    1.4    64      2.1   836.2   48.37      40    61.6   999.0
 209    8:50   58.6    68    1.5    66      2.0   836.2   48.37      57    61.8   999.0
 209    9:00   59.0    68    1.0    69      1.8   836.2   48.40     609    61.9   999.0
 209    9:10   59.5    68    0.8    65      1.3   836.2   48.40     783    61.9   999.0
 209    9:20   62.8    66    1.0    60      3.3   836.3   48.40     814    62.0   999.0
 209    9:30   69.5    61    0.9    57      1.6   836.3   48.37     837    62.1   999.0
 209    9:40   75.1    54    1.2    44      2.6   836.4   48.37     858    62.1   999.0
 209    9:50   78.3    39    1.0   295      3.6   836.4   48.37     881    62.2   999.0
 209   10:00   80.8    37    1.4   290      3.7   836.4   48.37     903    62.4   999.0
 209   10:10   82.5    33    1.7   167      5.1   836.5   48.37     927    62.7   999.0
 209   10:20   83.9    30    2.1   245      5.3   836.4   48.37     950    63.0   999.0
 209   10:30   85.3    26    3.1   278      8.8   836.4   48.37     965    63.4   999.0
 209   10:40   86.5    28    1.7   240      7.9   836.5   48.33     984    63.8   999.0
 209   10:50   86.9    23    3.3   268      8.3   836.5   48.37    1000    64.3   999.0
 209   11:00   87.6    24    2.9   274      7.3   836.5   48.33    1014    64.8   999.0
 209   11:10   89.1    25    3.0   258      7.3   836.5   48.37    1025    65.4   999.0
 209   11:20   90.4    22    3.2   276     10.3   836.5   48.37    1037    66.1   999.0
 209   11:30   91.8    22    3.3   248      8.3   836.5   48.37    1044    66.8   999.0
 209   11:40   93.4    23    2.6   252      8.8   836.4   48.37    1046    67.4   999.0
 209   11:50   93.6    20    3.7   271      9.7   836.5   48.33    1049    68.1   999.0
 209   12:00   94.7    22    4.0   262     10.2   836.5   48.37    1053    68.7   999.0
 209   12:10   95.4    20    3.8   270     10.6   836.5   48.33    1056    69.2   999.0
 209   12:20   96.3    20    4.3   279     10.2   836.5   48.33    1054    69.7   999.0
 209   12:30   98.0    19    3.4   255      9.4   836.4   48.33    1051    70.2   999.0
 209   12:40  100.8    20    2.9   277      9.6   836.4   48.33    1039    70.7   999.0
 209   12:50  103.6    18    3.3   235      9.0   836.3   48.33    1029    71.0   999.0
 209   13:00  105.6    17    3.5   259     10.2   836.3   48.33    1039    71.4   999.0
 209   13:10  107.6    18    3.2   272     10.7   836.3   48.37    1033    71.7   999.0
 209   13:20  110.4    17    2.9   268      8.0   836.2   48.29    1022    72.0   999.0
 209   13:30  113.0    16    3.0   270     11.0   836.2   48.33    1001    72.3   999.0
 209   13:40  114.2    15    3.8   278     10.0   836.2   48.29     992    72.7   999.0
 209   13:50  113.7    14    4.2   266     11.8   836.2   48.29     978    73.0   999.0
 209   14:00  116.9    15    4.0   258     12.4   836.1   48.26     959    73.3   999.0
 209   14:10  120.6    14    3.4   258     10.0   836.1   48.29     943    73.6   999.0
 209   14:20  120.7    14    3.4   279     10.0   836.1   48.26     926    73.9   999.0
 209   14:30  121.9    13    3.1   259     11.2   836.0   48.26     902    74.3   999.0

Return to Onion Creek graphs page.


Western Regional Climate Center,wrcc@dri.edu